createdAt,value
2017-11-12T01:09:58.864Z,17.62
2017-11-12T01:12:30.286Z,17.60
2017-11-12T02:00:44.899Z,17.62
2017-11-12T02:21:32.847Z,17.49
2017-11-12T03:00:34.177Z,17.26
2017-11-12T03:03:07.195Z,17.34
2017-11-12T03:05:40.460Z,17.36
2017-11-12T03:08:19.568Z,17.39
2017-11-12T03:20:09.679Z,17.51
2017-11-12T03:22:45.557Z,17.52
2017-11-12T03:25:18.085Z,17.48
2017-11-12T03:32:23.893Z,17.48
2017-11-12T03:57:34.895Z,17.20
2017-11-12T04:00:12.737Z,17.18
2017-11-12T04:02:45.863Z,17.18
2017-11-12T04:10:10.160Z,17.14
2017-11-12T04:17:25.934Z,17.23
2017-11-12T04:20:07.006Z,17.22
2017-11-12T04:22:39.788Z,17.34
2017-11-12T04:25:11.774Z,17.40
2017-11-12T04:36:50.397Z,17.43
2017-11-12T04:57:40.525Z,17.28
2017-11-12T05:00:12.805Z,17.29
2017-11-12T05:07:18.720Z,17.20
2017-11-12T06:03:42.925Z,17.37
2017-11-12T06:06:16.034Z,17.36
2017-11-12T06:08:56.040Z,17.30
2017-11-12T06:11:42.170Z,17.29
2017-11-12T06:14:17.673Z,17.25
2017-11-12T06:16:54.019Z,17.25
2017-11-12T06:19:27.870Z,17.24
2017-11-12T06:31:15.567Z,17.10
2017-11-12T06:33:48.816Z,17.14
2017-11-12T06:40:57.676Z,17.33
2017-11-12T06:43:29.938Z,17.38
2017-11-12T06:46:02.473Z,17.48
2017-11-12T06:48:47.068Z,17.56
2017-11-12T06:51:25.859Z,17.57
2017-11-12T06:58:36.066Z,17.66
2017-11-12T07:22:52.277Z,17.40
2017-11-12T07:29:56.085Z,17.41
2017-11-12T07:55:33.040Z,17.39
2017-11-12T07:58:17.590Z,17.50
2017-11-12T08:26:52.363Z,18.11
2017-11-12T08:29:24.250Z,18.06
2017-11-12T08:36:34.701Z,18.08
2017-11-12T08:39:08.741Z,18.12
2017-11-12T08:41:54.478Z,18.09
2017-11-12T08:44:32.408Z,18.08
2017-11-12T08:47:07.949Z,18.05
2017-11-12T08:49:50.537Z,18.07
2017-11-12T08:52:24.639Z,18.07
2017-11-12T08:54:58.458Z,18.11
2017-11-12T08:57:30.630Z,18.10
2017-11-12T09:00:12.130Z,18.15
2017-11-12T09:02:44.869Z,18.12
2017-11-12T09:05:17.916Z,18.16
2017-11-12T09:07:53.126Z,18.18
2017-11-12T09:10:42.654Z,18.10
2017-11-12T09:13:39.772Z,18.15
2017-11-12T09:16:15.442Z,18.11
2017-11-12T09:18:47.348Z,18.22
2017-11-12T09:21:20.145Z,18.27
2017-11-12T09:28:32.742Z,18.48
2017-11-12T09:35:52.964Z,18.50
2017-11-12T09:38:28.754Z,18.61
2017-11-12T09:43:58.774Z,18.58
2017-11-12T09:46:33.707Z,18.60
2017-11-12T09:49:06.963Z,18.57
2017-11-12T09:54:34.376Z,18.50
2017-11-12T09:57:08.489Z,18.48
2017-11-12T09:59:45.181Z,18.45
2017-11-12T10:02:23.622Z,18.41
2017-11-12T10:05:00.176Z,18.36
2017-11-12T10:07:36.585Z,18.33
2017-11-12T10:10:11.783Z,18.29
2017-11-12T10:17:17.970Z,18.16
2017-11-12T10:19:51.102Z,18.12
2017-11-12T10:25:05.968Z,18.06
2017-11-12T10:27:38.293Z,18.05
2017-11-12T10:30:13.915Z,17.97
2017-11-12T10:32:49.767Z,17.82
2017-11-12T10:38:04.141Z,17.96
2017-11-12T10:40:43.661Z,17.99
2017-11-12T10:43:20.443Z,17.91
2017-11-12T10:46:22.802Z,18.06
2017-11-12T13:22:03.646Z,17.93
2017-11-12T13:24:35.183Z,17.97
2017-11-12T13:27:11.080Z,18.02
2017-11-12T13:29:42.556Z,18.04
2017-11-12T13:32:16.127Z,18.10
2017-11-12T13:34:48.008Z,18.12
2017-11-12T13:37:20.569Z,18.16
2017-11-12T13:39:55.033Z,18.19
2017-11-12T13:42:28.666Z,18.15
2017-11-12T13:45:01.658Z,18.21
2017-11-12T13:47:33.716Z,18.18
2017-11-12T13:50:05.088Z,18.20
2017-11-12T13:52:37.182Z,18.19
2017-11-12T13:55:09.795Z,18.16
2017-11-12T13:57:41.818Z,18.17
2017-11-12T14:00:15.124Z,18.14
2017-11-12T14:02:48.625Z,18.08
2017-11-12T14:05:20.984Z,18.08
2017-11-12T14:07:52.976Z,18.05
2017-11-12T14:10:25.110Z,18.02
2017-11-12T14:12:56.426Z,18.00
2017-11-12T14:15:27.824Z,17.96
2017-11-12T14:17:59.339Z,17.93
2017-11-12T14:20:31.238Z,17.92
2017-11-12T14:23:04.813Z,17.89
2017-11-12T14:25:36.784Z,17.83
2017-11-12T14:31:01.212Z,17.77
2017-11-12T14:33:32.908Z,17.73
2017-11-12T14:36:08.668Z,17.71
2017-11-12T14:38:39.846Z,17.66
2017-11-12T14:41:11.368Z,17.66
2017-11-12T14:43:42.705Z,17.69
2017-11-12T14:46:15.563Z,17.71
2017-11-12T14:48:47.680Z,17.73
2017-11-12T14:51:19.051Z,17.78
2017-11-12T14:53:51.236Z,17.75
2017-11-12T14:56:23.183Z,17.81
2017-11-12T14:58:54.997Z,17.86
2017-11-12T15:01:27.820Z,17.87
2017-11-12T15:04:04.028Z,17.87
2017-11-12T15:06:36.594Z,17.89
2017-11-12T15:09:08.864Z,17.85
2017-11-12T15:11:40.886Z,17.87
2017-11-12T15:14:13.597Z,17.85
2017-11-12T15:16:45.488Z,17.83
2017-11-12T15:19:17.913Z,17.83
2017-11-12T15:21:50.065Z,17.82
2017-11-12T15:24:21.672Z,17.79
2017-11-12T15:26:53.852Z,17.69
2017-11-12T15:29:27.458Z,17.74
2017-11-12T15:31:59.592Z,17.71
2017-11-12T15:34:31.692Z,17.68
2017-11-12T15:37:03.908Z,17.66
2017-11-12T15:39:35.451Z,17.64
2017-11-12T15:42:07.036Z,17.62
2017-11-12T15:44:39.466Z,17.59
2017-11-12T15:47:13.361Z,17.51
2017-11-12T15:49:45.002Z,17.51
2017-11-12T15:52:17.176Z,17.51
2017-11-12T15:54:49.188Z,17.49
2017-11-12T15:57:21.138Z,17.45
2017-11-12T15:59:52.370Z,17.49
2017-11-12T16:02:24.104Z,17.50
2017-11-12T16:04:55.335Z,17.51
2017-11-12T16:07:29.027Z,17.54
2017-11-12T16:10:01.390Z,17.57
2017-11-12T16:12:47.692Z,17.59
2017-11-12T16:15:19.932Z,17.67
2017-11-12T16:17:54.510Z,17.70
2017-11-12T16:20:31.341Z,17.68
2017-11-12T16:23:06.380Z,17.74
2017-11-12T16:25:39.122Z,17.69
2017-11-12T16:28:11.221Z,17.76
2017-11-12T18:35:22.965Z,17.13
2017-11-12T18:38:15.010Z,17.11
2017-11-12T18:41:08.133Z,17.19
2017-11-12T18:43:50.826Z,17.27
2017-11-12T18:46:30.769Z,17.34
2017-11-12T18:49:05.407Z,17.41
2017-11-12T18:51:41.241Z,17.43
2017-11-12T18:54:16.548Z,17.47
2017-11-12T18:56:57.181Z,17.51
2017-11-12T18:59:33.139Z,17.56
2017-11-12T19:02:10.795Z,17.55
2017-11-12T19:07:26.373Z,17.58
2017-11-12T19:10:04.024Z,17.59
2017-11-12T19:12:38.645Z,17.58
2017-11-12T19:15:17.700Z,17.54
2017-11-12T19:17:56.408Z,17.55
2017-11-12T19:20:29.724Z,17.55
2017-11-12T19:23:05.426Z,17.51
2017-11-12T19:25:40.408Z,17.51
2017-11-12T19:28:14.342Z,17.49
2017-11-12T19:30:47.610Z,17.47
2017-11-12T19:33:21.625Z,17.42
2017-11-12T19:35:55.029Z,17.43
2017-11-12T19:38:52.578Z,17.34
2017-11-12T19:45:45.412Z,17.35
2017-11-12T19:48:16.944Z,17.29
2017-11-12T19:50:48.629Z,17.31
2017-11-12T19:53:19.930Z,17.30
2017-11-12T19:59:12.551Z,17.30
2017-11-12T20:45:51.378Z,17.23
2017-11-12T20:48:48.726Z,17.29
2017-11-12T21:34:27.602Z,17.28
2017-11-12T21:37:59.245Z,17.29
2017-11-12T21:40:57.216Z,17.32
2017-11-12T21:52:31.311Z,17.25
2017-11-12T21:55:08.460Z,17.31
2017-11-12T21:57:46.542Z,17.29
2017-11-12T22:00:19.134Z,17.20
2017-11-12T22:02:52.136Z,17.20
2017-11-12T22:05:24.709Z,17.18
2017-11-12T22:07:57.783Z,17.17
2017-11-12T22:10:35.056Z,17.16
2017-11-12T22:13:16.958Z,17.09
2017-11-12T22:15:55.701Z,17.06
2017-11-12T22:18:33.893Z,17.10
2017-11-12T22:21:05.787Z,17.09
2017-11-12T22:23:44.562Z,17.13
2017-11-12T22:26:23.070Z,17.13
2017-11-12T22:29:13.266Z,17.10
2017-11-12T22:35:08.993Z,17.21
2017-11-12T22:37:43.616Z,17.27
2017-11-12T22:40:16.974Z,17.35
2017-11-12T22:42:52.284Z,17.36
2017-11-12T22:45:24.062Z,17.41
2017-11-12T22:48:02.141Z,17.44
2017-11-12T22:50:37.784Z,17.45
2017-11-12T22:53:10.371Z,17.46
2017-11-12T22:55:42.679Z,17.44
2017-11-12T22:58:22.787Z,17.41
2017-11-12T23:01:08.104Z,17.44
2017-11-12T23:03:56.931Z,17.36
2017-11-12T23:06:51.617Z,17.38
2017-11-12T23:10:01.916Z,17.32
2017-11-12T23:15:25.017Z,17.28
2017-11-12T23:17:56.809Z,17.27
2017-11-12T23:20:35.372Z,17.23
2017-11-12T23:23:13.381Z,17.22
2017-11-12T23:25:47.544Z,17.12
2017-11-12T23:28:19.468Z,17.16
2017-11-12T23:30:53.843Z,17.08
2017-11-12T23:33:26.001Z,17.09
2017-11-12T23:35:58.646Z,17.09
2017-11-12T23:41:33.316Z,17.11
2017-11-12T23:46:52.636Z,17.24
2017-11-12T23:49:47.699Z,17.28
2017-11-12T23:55:06.199Z,17.41
2017-11-12T23:57:38.091Z,17.45
